sensor_id;sensor_type;location;lat;lon;timestamp;temperature;humidity
22787;DHT22;63134;52.020;4.714;2022-10-31T00:02:03;13.30;93.90
22787;DHT22;63134;52.020;4.714;2022-10-31T00:04:49;13.30;93.90
22787;DHT22;63134;52.020;4.714;2022-10-31T00:07:34;13.30;94.00
22787;DHT22;63134;52.020;4.714;2022-10-31T00:10:20;13.30;94.00
22787;DHT22;63134;52.020;4.714;2022-10-31T00:13:06;13.30;94.10
22787;DHT22;63134;52.020;4.714;2022-10-31T00:15:52;13.40;94.20
22787;DHT22;63134;52.020;4.714;2022-10-31T00:18:37;13.40;94.30
22787;DHT22;63134;52.020;4.714;2022-10-31T00:21:24;13.40;94.20
22787;DHT22;63134;52.020;4.714;2022-10-31T00:24:10;13.30;94.10
22787;DHT22;63134;52.020;4.714;2022-10-31T00:26:56;13.20;94.10
22787;DHT22;63134;52.020;4.714;2022-10-31T00:29:46;13.20;94.10
22787;DHT22;63134;52.020;4.714;2022-10-31T00:32:32;13.10;94.00
22787;DHT22;63134;52.020;4.714;2022-10-31T00:35:17;13.10;94.00
22787;DHT22;63134;52.020;4.714;2022-10-31T00:38:02;13.00;94.10
22787;DHT22;63134;52.020;4.714;2022-10-31T00:40:48;13.00;94.10
22787;DHT22;63134;52.020;4.714;2022-10-31T00:43:34;13.00;94.20
22787;DHT22;63134;52.020;4.714;2022-10-31T00:46:19;13.00;94.40
22787;DHT22;63134;52.020;4.714;2022-10-31T00:49:06;13.00;94.60
22787;DHT22;63134;52.020;4.714;2022-10-31T00:51:52;13.00;94.60
22787;DHT22;63134;52.020;4.714;2022-10-31T00:54:38;13.00;94.70
22787;DHT22;63134;52.020;4.714;2022-10-31T00:57:23;12.90;94.70
22787;DHT22;63134;52.020;4.714;2022-10-31T01:00:09;12.90;94.80
22787;DHT22;63134;52.020;4.714;2022-10-31T01:02:55;12.90;94.90
22787;DHT22;63134;52.020;4.714;2022-10-31T01:05:40;12.90;94.90
22787;DHT22;63134;52.020;4.714;2022-10-31T01:08:36;12.80;95.00
22787;DHT22;63134;52.020;4.714;2022-10-31T01:11:25;12.90;95.10
22787;DHT22;63134;52.020;4.714;2022-10-31T01:14:11;12.80;95.10
22787;DHT22;63134;52.020;4.714;2022-10-31T01:17:05;12.80;95.10
22787;DHT22;63134;52.020;4.714;2022-10-31T01:19:51;12.80;95.10
22787;DHT22;63134;52.020;4.714;2022-10-31T01:22:36;12.80;95.30
22787;DHT22;63134;52.020;4.714;2022-10-31T01:25:22;12.80;95.40
22787;DHT22;63134;52.020;4.714;2022-10-31T01:28:07;12.80;95.50
22787;DHT22;63134;52.020;4.714;2022-10-31T01:31:07;12.80;95.60
22787;DHT22;63134;52.020;4.714;2022-10-31T01:33:53;12.90;95.70
22787;DHT22;63134;52.020;4.714;2022-10-31T01:36:42;12.90;95.60
22787;DHT22;63134;52.020;4.714;2022-10-31T01:39:30;12.90;95.70
22787;DHT22;63134;52.020;4.714;2022-10-31T01:42:18;12.90;95.80
22787;DHT22;63134;52.020;4.714;2022-10-31T01:45:05;12.90;95.80
22787;DHT22;63134;52.020;4.714;2022-10-31T01:47:56;12.90;95.80
22787;DHT22;63134;52.020;4.714;2022-10-31T01:50:44;13.00;95.90
22787;DHT22;63134;52.020;4.714;2022-10-31T01:53:31;13.00;95.90
22787;DHT22;63134;52.020;4.714;2022-10-31T01:56:17;13.00;95.90
22787;DHT22;63134;52.020;4.714;2022-10-31T01:59:05;13.00;95.90
22787;DHT22;63134;52.020;4.714;2022-10-31T02:01:53;12.90;95.90
22787;DHT22;63134;52.020;4.714;2022-10-31T02:04:39;12.90;95.80
22787;DHT22;63134;52.020;4.714;2022-10-31T02:07:54;12.90;95.70
22787;DHT22;63134;52.020;4.714;2022-10-31T02:10:45;12.80;95.70
22787;DHT22;63134;52.020;4.714;2022-10-31T02:13:31;12.70;95.60
22787;DHT22;63134;52.020;4.714;2022-10-31T02:16:18;12.70;95.60
22787;DHT22;63134;52.020;4.714;2022-10-31T02:19:05;12.60;95.70
22787;DHT22;63134;52.020;4.714;2022-10-31T02:22:09;12.60;95.80
22787;DHT22;63134;52.020;4.714;2022-10-31T02:31:43;12.60;96.30
22787;DHT22;63134;52.020;4.714;2022-10-31T02:34:42;12.60;96.20
22787;DHT22;63134;52.020;4.714;2022-10-31T02:37:40;12.50;96.20
22787;DHT22;63134;52.020;4.714;2022-10-31T02:40:38;12.50;96.20
22787;DHT22;63134;52.020;4.714;2022-10-31T02:47:08;12.50;96.60
22787;DHT22;63134;52.020;4.714;2022-10-31T02:49:56;12.50;96.60
22787;DHT22;63134;52.020;4.714;2022-10-31T02:52:43;12.50;96.70
22787;DHT22;63134;52.020;4.714;2022-10-31T02:58:19;12.50;96.70
22787;DHT22;63134;52.020;4.714;2022-10-31T03:01:17;12.50;96.70
22787;DHT22;63134;52.020;4.714;2022-10-31T03:07:38;12.50;96.60
22787;DHT22;63134;52.020;4.714;2022-10-31T03:16:43;12.40;96.60
22787;DHT22;63134;52.020;4.714;2022-10-31T03:19:43;12.30;96.60
22787;DHT22;63134;52.020;4.714;2022-10-31T03:22:31;12.20;96.60
22787;DHT22;63134;52.020;4.714;2022-10-31T03:25:18;12.20;96.70
22787;DHT22;63134;52.020;4.714;2022-10-31T03:28:04;12.20;96.70
22787;DHT22;63134;52.020;4.714;2022-10-31T03:30:51;12.10;96.80
22787;DHT22;63134;52.020;4.714;2022-10-31T03:33:38;12.20;96.90
22787;DHT22;63134;52.020;4.714;2022-10-31T03:36:26;12.10;96.90
22787;DHT22;63134;52.020;4.714;2022-10-31T03:39:14;12.10;97.00
22787;DHT22;63134;52.020;4.714;2022-10-31T03:42:21;12.10;97.10
22787;DHT22;63134;52.020;4.714;2022-10-31T03:45:14;12.10;97.30
22787;DHT22;63134;52.020;4.714;2022-10-31T03:48:04;12.10;97.30
22787;DHT22;63134;52.020;4.714;2022-10-31T03:54:30;12.10;97.50
22787;DHT22;63134;52.020;4.714;2022-10-31T03:57:42;12.10;97.50
22787;DHT22;63134;52.020;4.714;2022-10-31T04:00:30;12.10;97.40
22787;DHT22;63134;52.020;4.714;2022-10-31T04:03:31;12.00;97.50
22787;DHT22;63134;52.020;4.714;2022-10-31T04:06:20;12.00;97.70
22787;DHT22;63134;52.020;4.714;2022-10-31T04:09:08;12.10;97.90
22787;DHT22;63134;52.020;4.714;2022-10-31T04:11:56;12.10;98.00
22787;DHT22;63134;52.020;4.714;2022-10-31T04:14:55;12.10;97.90
22787;DHT22;63134;52.020;4.714;2022-10-31T04:17:43;12.10;97.70
22787;DHT22;63134;52.020;4.714;2022-10-31T04:20:36;12.00;97.60
22787;DHT22;63134;52.020;4.714;2022-10-31T04:23:25;12.00;97.60
22787;DHT22;63134;52.020;4.714;2022-10-31T04:26:12;11.90;97.70
22787;DHT22;63134;52.020;4.714;2022-10-31T04:28:57;12.00;97.70
22787;DHT22;63134;52.020;4.714;2022-10-31T04:31:44;11.90;97.70
22787;DHT22;63134;52.020;4.714;2022-10-31T04:34:30;11.90;97.60
22787;DHT22;63134;52.020;4.714;2022-10-31T04:37:15;11.90;97.60
22787;DHT22;63134;52.020;4.714;2022-10-31T04:40:01;11.90;97.50
22787;DHT22;63134;52.020;4.714;2022-10-31T04:43:16;11.90;97.60
22787;DHT22;63134;52.020;4.714;2022-10-31T04:46:11;11.80;97.50
22787;DHT22;63134;52.020;4.714;2022-10-31T04:48:57;11.80;97.40
22787;DHT22;63134;52.020;4.714;2022-10-31T04:51:42;11.70;97.20
22787;DHT22;63134;52.020;4.714;2022-10-31T04:54:27;11.70;97.20
22787;DHT22;63134;52.020;4.714;2022-10-31T04:57:49;11.60;97.00
22787;DHT22;63134;52.020;4.714;2022-10-31T05:00:39;11.60;97.20
22787;DHT22;63134;52.020;4.714;2022-10-31T05:03:27;11.60;97.10
22787;DHT22;63134;52.020;4.714;2022-10-31T05:06:13;11.50;97.10
22787;DHT22;63134;52.020;4.714;2022-10-31T05:09:00;11.50;97.10
22787;DHT22;63134;52.020;4.714;2022-10-31T05:11:46;11.50;97.10
22787;DHT22;63134;52.020;4.714;2022-10-31T05:15:05;11.50;97.00
22787;DHT22;63134;52.020;4.714;2022-10-31T05:18:09;11.50;97.00
22787;DHT22;63134;52.020;4.714;2022-10-31T05:21:13;11.40;97.00
22787;DHT22;63134;52.020;4.714;2022-10-31T05:24:06;11.40;97.10
22787;DHT22;63134;52.020;4.714;2022-10-31T05:26:57;11.40;97.00
22787;DHT22;63134;52.020;4.714;2022-10-31T05:29:43;11.30;97.00
22787;DHT22;63134;52.020;4.714;2022-10-31T05:32:28;11.30;96.90
22787;DHT22;63134;52.020;4.714;2022-10-31T05:35:43;11.30;97.00
22787;DHT22;63134;52.020;4.714;2022-10-31T05:38:50;11.30;97.30
22787;DHT22;63134;52.020;4.714;2022-10-31T05:41:42;11.20;96.90
22787;DHT22;63134;52.020;4.714;2022-10-31T05:44:34;11.20;96.90
22787;DHT22;63134;52.020;4.714;2022-10-31T05:47:42;11.20;97.30
22787;DHT22;63134;52.020;4.714;2022-10-31T05:50:56;11.20;97.00
22787;DHT22;63134;52.020;4.714;2022-10-31T05:53:42;11.20;97.00
22787;DHT22;63134;52.020;4.714;2022-10-31T05:56:30;11.10;96.90
22787;DHT22;63134;52.020;4.714;2022-10-31T05:59:15;11.10;96.80
22787;DHT22;63134;52.020;4.714;2022-10-31T06:02:02;11.10;96.90
22787;DHT22;63134;52.020;4.714;2022-10-31T06:05:07;11.00;96.80
22787;DHT22;63134;52.020;4.714;2022-10-31T06:07:52;11.00;96.90
22787;DHT22;63134;52.020;4.714;2022-10-31T06:10:37;11.00;96.90
22787;DHT22;63134;52.020;4.714;2022-10-31T06:13:23;11.00;96.80
22787;DHT22;63134;52.020;4.714;2022-10-31T06:16:18;11.00;96.90
22787;DHT22;63134;52.020;4.714;2022-10-31T06:19:03;10.90;96.90
22787;DHT22;63134;52.020;4.714;2022-10-31T06:21:49;11.00;97.10
22787;DHT22;63134;52.020;4.714;2022-10-31T06:24:34;10.90;97.10
22787;DHT22;63134;52.020;4.714;2022-10-31T06:27:40;11.00;97.20
22787;DHT22;63134;52.020;4.714;2022-10-31T06:30:31;11.00;97.30
22787;DHT22;63134;52.020;4.714;2022-10-31T06:33:17;11.00;97.30
22787;DHT22;63134;52.020;4.714;2022-10-31T06:36:12;11.00;97.30
22787;DHT22;63134;52.020;4.714;2022-10-31T06:38:58;11.00;97.30
22787;DHT22;63134;52.020;4.714;2022-10-31T06:41:47;11.00;97.30
22787;DHT22;63134;52.020;4.714;2022-10-31T06:44:34;10.90;97.30
22787;DHT22;63134;52.020;4.714;2022-10-31T06:47:39;11.00;97.70
22787;DHT22;63134;52.020;4.714;2022-10-31T06:50:46;11.00;97.90
22787;DHT22;63134;52.020;4.714;2022-10-31T06:53:32;11.00;97.50
22787;DHT22;63134;52.020;4.714;2022-10-31T06:56:18;11.10;97.70
22787;DHT22;63134;52.020;4.714;2022-10-31T06:59:08;11.10;97.90
22787;DHT22;63134;52.020;4.714;2022-10-31T07:02:13;11.20;97.80
22787;DHT22;63134;52.020;4.714;2022-10-31T07:05:02;11.20;97.80
22787;DHT22;63134;52.020;4.714;2022-10-31T07:07:52;11.30;97.90
22787;DHT22;63134;52.020;4.714;2022-10-31T07:10:41;11.30;98.10
22787;DHT22;63134;52.020;4.714;2022-10-31T07:13:27;11.40;98.20
22787;DHT22;63134;52.020;4.714;2022-10-31T07:16:23;11.50;98.30
22787;DHT22;63134;52.020;4.714;2022-10-31T07:19:08;11.60;98.40
22787;DHT22;63134;52.020;4.714;2022-10-31T07:21:57;11.60;98.40
22787;DHT22;63134;52.020;4.714;2022-10-31T07:24:46;11.70;98.50
22787;DHT22;63134;52.020;4.714;2022-10-31T07:28:03;11.70;98.50
22787;DHT22;63134;52.020;4.714;2022-10-31T07:30:55;11.80;98.40
22787;DHT22;63134;52.020;4.714;2022-10-31T07:33:41;11.90;98.40
22787;DHT22;63134;52.020;4.714;2022-10-31T07:36:53;11.90;98.50
22787;DHT22;63134;52.020;4.714;2022-10-31T07:39:38;12.00;98.60
22787;DHT22;63134;52.020;4.714;2022-10-31T07:42:24;12.10;98.60
22787;DHT22;63134;52.020;4.714;2022-10-31T07:45:12;12.10;98.50
22787;DHT22;63134;52.020;4.714;2022-10-31T07:48:27;12.20;98.70
22787;DHT22;63134;52.020;4.714;2022-10-31T07:51:31;12.20;98.60
22787;DHT22;63134;52.020;4.714;2022-10-31T07:54:36;12.20;98.20
22787;DHT22;63134;52.020;4.714;2022-10-31T07:57:21;12.40;98.70
22787;DHT22;63134;52.020;4.714;2022-10-31T08:00:10;12.40;98.50
22787;DHT22;63134;52.020;4.714;2022-10-31T08:03:06;12.40;98.60
22787;DHT22;63134;52.020;4.714;2022-10-31T08:06:11;12.50;98.80
22787;DHT22;63134;52.020;4.714;2022-10-31T08:09:35;12.50;98.70
22787;DHT22;63134;52.020;4.714;2022-10-31T08:12:35;12.50;98.50
22787;DHT22;63134;52.020;4.714;2022-10-31T08:15:24;12.50;98.50
22787;DHT22;63134;52.020;4.714;2022-10-31T08:18:14;12.60;98.50
22787;DHT22;63134;52.020;4.714;2022-10-31T08:21:00;12.60;98.60
22787;DHT22;63134;52.020;4.714;2022-10-31T08:23:46;12.70;98.70
22787;DHT22;63134;52.020;4.714;2022-10-31T08:26:32;12.80;98.60
22787;DHT22;63134;52.020;4.714;2022-10-31T08:29:17;12.90;98.70
22787;DHT22;63134;52.020;4.714;2022-10-31T08:32:04;12.90;98.60
22787;DHT22;63134;52.020;4.714;2022-10-31T08:35:09;12.90;98.60
22787;DHT22;63134;52.020;4.714;2022-10-31T08:38:13;13.00;98.60
22787;DHT22;63134;52.020;4.714;2022-10-31T08:41:00;13.00;98.50
22787;DHT22;63134;52.020;4.714;2022-10-31T08:43:46;13.10;98.70
22787;DHT22;63134;52.020;4.714;2022-10-31T08:46:33;13.10;98.80
22787;DHT22;63134;52.020;4.714;2022-10-31T08:49:19;13.20;98.70
22787;DHT22;63134;52.020;4.714;2022-10-31T08:52:05;13.30;98.90
22787;DHT22;63134;52.020;4.714;2022-10-31T08:55:01;13.40;99.00
22787;DHT22;63134;52.020;4.714;2022-10-31T08:58:19;13.60;99.10
22787;DHT22;63134;52.020;4.714;2022-10-31T09:01:09;13.70;99.20
22787;DHT22;63134;52.020;4.714;2022-10-31T09:03:58;13.90;99.40
22787;DHT22;63134;52.020;4.714;2022-10-31T09:06:44;14.00;99.40
22787;DHT22;63134;52.020;4.714;2022-10-31T09:09:49;14.20;99.70
22787;DHT22;63134;52.020;4.714;2022-10-31T09:12:36;14.40;99.60
22787;DHT22;63134;52.020;4.714;2022-10-31T09:15:42;14.50;99.70
22787;DHT22;63134;52.020;4.714;2022-10-31T09:18:36;14.70;99.90
22787;DHT22;63134;52.020;4.714;2022-10-31T09:21:22;14.90;99.90
22787;DHT22;63134;52.020;4.714;2022-10-31T09:24:07;15.00;99.80
22787;DHT22;63134;52.020;4.714;2022-10-31T09:26:55;15.10;99.70
22787;DHT22;63134;52.020;4.714;2022-10-31T09:29:45;15.20;99.40
22787;DHT22;63134;52.020;4.714;2022-10-31T09:32:31;15.30;99.30
22787;DHT22;63134;52.020;4.714;2022-10-31T09:35:16;15.40;99.20
22787;DHT22;63134;52.020;4.714;2022-10-31T09:38:09;15.50;99.20
22787;DHT22;63134;52.020;4.714;2022-10-31T09:41:24;15.70;99.60
22787;DHT22;63134;52.020;4.714;2022-10-31T09:44:41;15.90;99.60
22787;DHT22;63134;52.020;4.714;2022-10-31T09:51:10;16.30;99.50
22787;DHT22;63134;52.020;4.714;2022-10-31T09:54:15;16.40;99.40
22787;DHT22;63134;52.020;4.714;2022-10-31T09:57:02;16.60;99.20
22787;DHT22;63134;52.020;4.714;2022-10-31T09:59:49;16.70;98.90
22787;DHT22;63134;52.020;4.714;2022-10-31T10:09:24;17.00;98.50
22787;DHT22;63134;52.020;4.714;2022-10-31T10:22:35;17.50;98.20
22787;DHT22;63134;52.020;4.714;2022-10-31T10:25:39;17.60;97.80
22787;DHT22;63134;52.020;4.714;2022-10-31T10:28:28;17.70;97.60
22787;DHT22;63134;52.020;4.714;2022-10-31T10:31:17;17.80;97.60
22787;DHT22;63134;52.020;4.714;2022-10-31T10:34:23;17.90;97.30
22787;DHT22;63134;52.020;4.714;2022-10-31T10:37:30;18.00;97.30
22787;DHT22;63134;52.020;4.714;2022-10-31T10:43:20;18.30;97.40
22787;DHT22;63134;52.020;4.714;2022-10-31T10:49:45;18.90;97.80
22787;DHT22;63134;52.020;4.714;2022-10-31T10:56:11;19.40;96.90
22787;DHT22;63134;52.020;4.714;2022-10-31T10:58:58;19.50;95.80
22787;DHT22;63134;52.020;4.714;2022-10-31T11:01:44;19.50;95.30
22787;DHT22;63134;52.020;4.714;2022-10-31T11:04:35;19.60;95.10
22787;DHT22;63134;52.020;4.714;2022-10-31T11:07:21;19.70;95.30
22787;DHT22;63134;52.020;4.714;2022-10-31T11:10:12;19.70;94.80
22787;DHT22;63134;52.020;4.714;2022-10-31T11:16:07;19.90;95.00
22787;DHT22;63134;52.020;4.714;2022-10-31T11:19:06;20.00;94.50
22787;DHT22;63134;52.020;4.714;2022-10-31T11:21:53;20.00;93.80
22787;DHT22;63134;52.020;4.714;2022-10-31T11:24:40;20.00;93.90
22787;DHT22;63134;52.020;4.714;2022-10-31T11:27:26;20.00;93.90
22787;DHT22;63134;52.020;4.714;2022-10-31T11:30:13;20.10;93.30
22787;DHT22;63134;52.020;4.714;2022-10-31T11:32:59;20.00;93.50
22787;DHT22;63134;52.020;4.714;2022-10-31T11:35:46;20.00;93.30
22787;DHT22;63134;52.020;4.714;2022-10-31T11:38:43;19.90;93.20
22787;DHT22;63134;52.020;4.714;2022-10-31T11:41:31;19.80;92.90
22787;DHT22;63134;52.020;4.714;2022-10-31T11:44:23;19.70;93.00
22787;DHT22;63134;52.020;4.714;2022-10-31T11:47:15;19.70;93.10
22787;DHT22;63134;52.020;4.714;2022-10-31T11:50:08;19.70;93.00
22787;DHT22;63134;52.020;4.714;2022-10-31T11:52:55;19.70;93.20
22787;DHT22;63134;52.020;4.714;2022-10-31T11:55:40;19.70;93.20
22787;DHT22;63134;52.020;4.714;2022-10-31T11:58:26;19.60;92.60
22787;DHT22;63134;52.020;4.714;2022-10-31T12:01:29;19.60;92.80
22787;DHT22;63134;52.020;4.714;2022-10-31T12:07:20;19.90;93.30
22787;DHT22;63134;52.020;4.714;2022-10-31T12:10:12;20.10;93.20
22787;DHT22;63134;52.020;4.714;2022-10-31T12:13:24;20.20;92.60
22787;DHT22;63134;52.020;4.714;2022-10-31T12:19:59;20.50;92.50
22787;DHT22;63134;52.020;4.714;2022-10-31T12:26:22;21.10;92.50
22787;DHT22;63134;52.020;4.714;2022-10-31T12:29:28;21.60;92.20
22787;DHT22;63134;52.020;4.714;2022-10-31T12:38:50;22.10;88.60
22787;DHT22;63134;52.020;4.714;2022-10-31T12:51:13;22.40;82.90
22787;DHT22;63134;52.020;4.714;2022-10-31T12:54:56;22.20;82.40
22787;DHT22;63134;52.020;4.714;2022-10-31T12:57:47;22.00;81.30
22787;DHT22;63134;52.020;4.714;2022-10-31T13:00:34;21.70;81.10
22787;DHT22;63134;52.020;4.714;2022-10-31T13:06:52;21.30;80.20
22787;DHT22;63134;52.020;4.714;2022-10-31T13:09:55;21.20;81.20
22787;DHT22;63134;52.020;4.714;2022-10-31T13:12:41;21.20;81.30
22787;DHT22;63134;52.020;4.714;2022-10-31T13:15:31;21.10;81.20
22787;DHT22;63134;52.020;4.714;2022-10-31T13:18:32;21.00;81.00
22787;DHT22;63134;52.020;4.714;2022-10-31T13:21:24;20.90;80.60
22787;DHT22;63134;52.020;4.714;2022-10-31T13:24:16;20.70;80.30
22787;DHT22;63134;52.020;4.714;2022-10-31T13:27:25;20.60;80.70
22787;DHT22;63134;52.020;4.714;2022-10-31T13:30:13;20.40;80.80
22787;DHT22;63134;52.020;4.714;2022-10-31T13:33:14;20.20;81.10
22787;DHT22;63134;52.020;4.714;2022-10-31T13:45:22;19.80;82.50
22787;DHT22;63134;52.020;4.714;2022-10-31T13:51:06;19.70;83.00
22787;DHT22;63134;52.020;4.714;2022-10-31T13:56:40;19.60;83.50
22787;DHT22;63134;52.020;4.714;2022-10-31T13:59:27;19.50;83.60
22787;DHT22;63134;52.020;4.714;2022-10-31T14:02:23;19.50;84.10
22787;DHT22;63134;52.020;4.714;2022-10-31T14:05:30;19.50;84.30
22787;DHT22;63134;52.020;4.714;2022-10-31T14:08:21;19.50;84.60
22787;DHT22;63134;52.020;4.714;2022-10-31T14:11:25;19.60;84.40
22787;DHT22;63134;52.020;4.714;2022-10-31T14:14:23;19.50;84.30
22787;DHT22;63134;52.020;4.714;2022-10-31T14:17:29;19.50;84.40
22787;DHT22;63134;52.020;4.714;2022-10-31T14:23:35;19.40;84.30
22787;DHT22;63134;52.020;4.714;2022-10-31T14:32:25;19.30;84.90
22787;DHT22;63134;52.020;4.714;2022-10-31T14:35:17;19.30;85.00
22787;DHT22;63134;52.020;4.714;2022-10-31T14:38:21;19.20;85.90
22787;DHT22;63134;52.020;4.714;2022-10-31T14:47:44;18.90;85.60
22787;DHT22;63134;52.020;4.714;2022-10-31T14:50:49;18.80;85.80
22787;DHT22;63134;52.020;4.714;2022-10-31T14:54:12;18.80;85.90
22787;DHT22;63134;52.020;4.714;2022-10-31T14:56:55;18.70;86.30
22787;DHT22;63134;52.020;4.714;2022-10-31T14:59:45;18.70;86.50
22787;DHT22;63134;52.020;4.714;2022-10-31T15:02:35;18.70;86.60
22787;DHT22;63134;52.020;4.714;2022-10-31T15:05:22;18.70;86.70
22787;DHT22;63134;52.020;4.714;2022-10-31T15:11:27;18.50;86.80
22787;DHT22;63134;52.020;4.714;2022-10-31T15:14:25;18.40;87.10
22787;DHT22;63134;52.020;4.714;2022-10-31T15:17:11;18.30;87.30
22787;DHT22;63134;52.020;4.714;2022-10-31T15:20:00;18.20;87.30
22787;DHT22;63134;52.020;4.714;2022-10-31T15:22:46;18.10;87.60
22787;DHT22;63134;52.020;4.714;2022-10-31T15:25:34;18.10;88.80
22787;DHT22;63134;52.020;4.714;2022-10-31T15:28:24;18.10;88.30
22787;DHT22;63134;52.020;4.714;2022-10-31T15:31:15;18.00;88.60
22787;DHT22;63134;52.020;4.714;2022-10-31T15:34:22;17.90;88.90
22787;DHT22;63134;52.020;4.714;2022-10-31T15:37:11;17.90;89.20
22787;DHT22;63134;52.020;4.714;2022-10-31T15:40:07;17.80;89.50
22787;DHT22;63134;52.020;4.714;2022-10-31T15:43:02;17.80;89.90
22787;DHT22;63134;52.020;4.714;2022-10-31T15:45:49;17.80;90.00
22787;DHT22;63134;52.020;4.714;2022-10-31T15:48:35;17.70;90.10
22787;DHT22;63134;52.020;4.714;2022-10-31T15:51:31;17.70;90.20
22787;DHT22;63134;52.020;4.714;2022-10-31T15:54:17;17.70;90.20
22787;DHT22;63134;52.020;4.714;2022-10-31T15:57:03;17.70;90.30
22787;DHT22;63134;52.020;4.714;2022-10-31T15:59:55;17.60;90.40
22787;DHT22;63134;52.020;4.714;2022-10-31T16:02:41;17.60;90.40
22787;DHT22;63134;52.020;4.714;2022-10-31T16:05:38;17.60;90.40
22787;DHT22;63134;52.020;4.714;2022-10-31T16:11:28;17.50;90.60
22787;DHT22;63134;52.020;4.714;2022-10-31T16:14:22;17.50;90.70
22787;DHT22;63134;52.020;4.714;2022-10-31T16:17:14;17.50;90.70
22787;DHT22;63134;52.020;4.714;2022-10-31T16:20:05;17.40;90.70
22787;DHT22;63134;52.020;4.714;2022-10-31T16:22:52;17.30;90.70
22787;DHT22;63134;52.020;4.714;2022-10-31T16:25:39;17.30;90.80
22787;DHT22;63134;52.020;4.714;2022-10-31T16:28:26;17.20;90.90
22787;DHT22;63134;52.020;4.714;2022-10-31T16:31:37;17.20;91.00
22787;DHT22;63134;52.020;4.714;2022-10-31T16:34:23;17.20;91.10
22787;DHT22;63134;52.020;4.714;2022-10-31T16:37:11;17.10;91.50
22787;DHT22;63134;52.020;4.714;2022-10-31T16:39:57;17.10;91.20
22787;DHT22;63134;52.020;4.714;2022-10-31T16:42:43;17.10;91.30
22787;DHT22;63134;52.020;4.714;2022-10-31T16:45:33;17.10;91.40
22787;DHT22;63134;52.020;4.714;2022-10-31T16:48:19;17.00;91.40
22787;DHT22;63134;52.020;4.714;2022-10-31T16:51:07;17.00;91.60
22787;DHT22;63134;52.020;4.714;2022-10-31T16:53:52;17.00;91.60
22787;DHT22;63134;52.020;4.714;2022-10-31T16:56:38;16.90;91.50
22787;DHT22;63134;52.020;4.714;2022-10-31T16:59:27;16.90;91.50
22787;DHT22;63134;52.020;4.714;2022-10-31T17:02:14;16.80;91.40
22787;DHT22;63134;52.020;4.714;2022-10-31T17:05:00;16.70;91.70
22787;DHT22;63134;52.020;4.714;2022-10-31T17:07:46;16.70;91.30
22787;DHT22;63134;52.020;4.714;2022-10-31T17:10:32;16.50;91.30
22787;DHT22;63134;52.020;4.714;2022-10-31T17:13:23;16.40;91.30
22787;DHT22;63134;52.020;4.714;2022-10-31T17:16:11;16.30;91.40
22787;DHT22;63134;52.020;4.714;2022-10-31T17:18:57;16.30;91.50
22787;DHT22;63134;52.020;4.714;2022-10-31T17:21:42;16.20;91.60
22787;DHT22;63134;52.020;4.714;2022-10-31T17:24:28;16.10;91.70
22787;DHT22;63134;52.020;4.714;2022-10-31T17:27:14;16.00;91.70
22787;DHT22;63134;52.020;4.714;2022-10-31T17:29:59;16.00;91.90
22787;DHT22;63134;52.020;4.714;2022-10-31T17:32:45;15.90;91.80
22787;DHT22;63134;52.020;4.714;2022-10-31T17:35:33;15.80;91.90
22787;DHT22;63134;52.020;4.714;2022-10-31T17:38:18;15.80;92.00
22787;DHT22;63134;52.020;4.714;2022-10-31T17:41:05;15.80;92.10
22787;DHT22;63134;52.020;4.714;2022-10-31T17:43:58;15.60;92.10
22787;DHT22;63134;52.020;4.714;2022-10-31T17:46:44;15.60;92.20
22787;DHT22;63134;52.020;4.714;2022-10-31T17:49:30;15.50;92.30
22787;DHT22;63134;52.020;4.714;2022-10-31T17:52:15;15.50;92.40
22787;DHT22;63134;52.020;4.714;2022-10-31T17:55:01;15.50;92.50
22787;DHT22;63134;52.020;4.714;2022-10-31T17:57:46;15.40;92.60
22787;DHT22;63134;52.020;4.714;2022-10-31T18:00:32;15.40;92.80
22787;DHT22;63134;52.020;4.714;2022-10-31T18:03:17;15.40;92.90
22787;DHT22;63134;52.020;4.714;2022-10-31T18:06:03;15.40;93.00
22787;DHT22;63134;52.020;4.714;2022-10-31T18:08:49;15.40;93.00
22787;DHT22;63134;52.020;4.714;2022-10-31T18:11:35;15.40;93.20
22787;DHT22;63134;52.020;4.714;2022-10-31T18:14:20;15.40;93.30
22787;DHT22;63134;52.020;4.714;2022-10-31T18:17:06;15.30;93.30
22787;DHT22;63134;52.020;4.714;2022-10-31T18:19:55;15.30;93.60
22787;DHT22;63134;52.020;4.714;2022-10-31T18:22:40;15.30;93.90
22787;DHT22;63134;52.020;4.714;2022-10-31T18:25:26;15.30;93.60
22787;DHT22;63134;52.020;4.714;2022-10-31T18:28:14;15.30;93.70
22787;DHT22;63134;52.020;4.714;2022-10-31T18:31:02;15.30;93.80
22787;DHT22;63134;52.020;4.714;2022-10-31T18:33:50;15.30;93.90
22787;DHT22;63134;52.020;4.714;2022-10-31T18:36:35;15.30;93.90
22787;DHT22;63134;52.020;4.714;2022-10-31T18:39:21;15.30;94.50
22787;DHT22;63134;52.020;4.714;2022-10-31T18:42:06;15.40;94.40
22787;DHT22;63134;52.020;4.714;2022-10-31T18:44:52;15.50;94.50
22787;DHT22;63134;52.020;4.714;2022-10-31T18:47:37;15.50;94.40
22787;DHT22;63134;52.020;4.714;2022-10-31T18:50:23;15.50;94.50
22787;DHT22;63134;52.020;4.714;2022-10-31T18:53:08;15.50;94.50
22787;DHT22;63134;52.020;4.714;2022-10-31T18:55:54;15.50;94.50
22787;DHT22;63134;52.020;4.714;2022-10-31T18:58:42;15.50;94.50
22787;DHT22;63134;52.020;4.714;2022-10-31T19:01:31;15.40;94.40
22787;DHT22;63134;52.020;4.714;2022-10-31T19:04:17;15.40;94.30
22787;DHT22;63134;52.020;4.714;2022-10-31T19:07:02;15.40;94.30
22787;DHT22;63134;52.020;4.714;2022-10-31T19:09:48;15.30;94.30
22787;DHT22;63134;52.020;4.714;2022-10-31T19:12:36;15.30;94.30
22787;DHT22;63134;52.020;4.714;2022-10-31T19:15:22;15.30;94.40
22787;DHT22;63134;52.020;4.714;2022-10-31T19:18:08;15.20;94.70
22787;DHT22;63134;52.020;4.714;2022-10-31T19:20:53;15.30;94.50
22787;DHT22;63134;52.020;4.714;2022-10-31T19:23:39;15.30;94.50
22787;DHT22;63134;52.020;4.714;2022-10-31T19:26:26;15.30;94.50
22787;DHT22;63134;52.020;4.714;2022-10-31T19:29:11;15.30;94.60
22787;DHT22;63134;52.020;4.714;2022-10-31T19:32:00;15.30;94.60
22787;DHT22;63134;52.020;4.714;2022-10-31T19:34:47;15.30;94.70
22787;DHT22;63134;52.020;4.714;2022-10-31T19:37:37;15.30;94.70
22787;DHT22;63134;52.020;4.714;2022-10-31T19:40:26;15.30;94.70
22787;DHT22;63134;52.020;4.714;2022-10-31T19:43:12;15.30;94.70
22787;DHT22;63134;52.020;4.714;2022-10-31T19:45:59;15.30;94.70
22787;DHT22;63134;52.020;4.714;2022-10-31T19:48:45;15.20;94.60
22787;DHT22;63134;52.020;4.714;2022-10-31T19:51:31;15.30;94.70
22787;DHT22;63134;52.020;4.714;2022-10-31T19:54:17;15.30;94.60
22787;DHT22;63134;52.020;4.714;2022-10-31T19:57:02;15.30;94.70
22787;DHT22;63134;52.020;4.714;2022-10-31T19:59:50;15.30;94.70
22787;DHT22;63134;52.020;4.714;2022-10-31T20:02:36;15.30;94.70
22787;DHT22;63134;52.020;4.714;2022-10-31T20:05:21;15.30;94.60
22787;DHT22;63134;52.020;4.714;2022-10-31T20:08:14;15.20;94.50